Huvudsida
METAR-TAF:

METAR-TAF

Flygplatser :

Örebro, Sverige

Örebro flygplats

latitud: 59-14N, longitud: 015-03E, höjd: 57 m

Aktuellt väderrapport

Denna rapport gjordes för 31 minuter sedan, klockan 17:50 UTC
Vind 8 kt från ost/sydost
Temperatur 2°C
Fuktighet 100%
Tryck 1001 hPa
Sikt: 7000 m
Mulet på en höjd av 700 ft
lätt regn

METAR: ESOE 221750Z 12008KT 7000 -RA OVC007 02/02 Q1001

Tid: 19:21 (18:21 UTC)

Väderprognos

Denna rapport gjordes för 51 minuter sedan, klockan 17:30 UTC
Prognos gäller från 22 kl. 18 UTC till 23 kl. 01 UTC
Vind 14 kt från ost/sydost i byarna ända upp till 24 kt
Sikt: 1400 m
Mulet på en höjd av 300 ft
regn, duggregn, fuktdis
Temporärt
från 22 kl. 18 UTC till 22 kl. 22 UTC
Sikt: 5000 m
Mulet på en höjd av 500 ft
lätt regn, duggregn
Temporärt
från 22 kl. 22 UTC till 23 kl. 01 UTC
Sikt: 0300 m
dimma

TAF: ESOE 221730Z 2218/2301 12014G24KT 1400 RADZ BR OVC003 TEMPO 2218/2222 5000 -RADZ OVC005 TEMPO 2222/2301 0300 FG

Aktuella väderrapporter och prognoser från 4000 flygplatser (METAR- och TAF-rapporter).

De tillgängliga stationerna syns som gula och röda prickar på kartan.

För musen över prickarna för att se namnen på stationerna.

Klicka sedan för att få väderrapporter och prognoser.

För att ändra kartan: Klicka på de gröna knapparna med ett svart kors på för att zooma in; den gröna knappen med ett streck på för att zooma ut; eller på de gröna pilarna för angränsande kartor.


METAR-TAF: